sensor_id;sensor_type;location;lat;lon;timestamp;temperature;humidity
10903;DHT22;5504;47.312;11.060;2023-07-22T00:00:09;17.40;98.20
10903;DHT22;5504;47.312;11.060;2023-07-22T00:02:42;17.30;97.90
10903;DHT22;5504;47.312;11.060;2023-07-22T00:05:08;17.30;98.10
10903;DHT22;5504;47.312;11.060;2023-07-22T00:07:34;17.30;98.10
10903;DHT22;5504;47.312;11.060;2023-07-22T00:10:00;17.30;98.10
10903;DHT22;5504;47.312;11.060;2023-07-22T00:12:26;17.30;97.80
10903;DHT22;5504;47.312;11.060;2023-07-22T00:14:52;17.30;98.10
10903;DHT22;5504;47.312;11.060;2023-07-22T00:17:18;17.30;98.30
10903;DHT22;5504;47.312;11.060;2023-07-22T00:19:44;17.30;98.50
10903;DHT22;5504;47.312;11.060;2023-07-22T00:22:10;17.40;98.40
10903;DHT22;5504;47.312;11.060;2023-07-22T00:24:36;17.40;98.10
10903;DHT22;5504;47.312;11.060;2023-07-22T00:27:02;17.40;98.00
10903;DHT22;5504;47.312;11.060;2023-07-22T00:29:28;17.40;97.80
10903;DHT22;5504;47.312;11.060;2023-07-22T00:31:53;17.30;97.80
10903;DHT22;5504;47.312;11.060;2023-07-22T00:34:19;17.30;98.00
10903;DHT22;5504;47.312;11.060;2023-07-22T00:36:45;17.20;98.10
10903;DHT22;5504;47.312;11.060;2023-07-22T00:39:11;17.20;98.50
10903;DHT22;5504;47.312;11.060;2023-07-22T00:41:39;17.30;98.60
10903;DHT22;5504;47.312;11.060;2023-07-22T00:44:06;17.30;98.50
10903;DHT22;5504;47.312;11.060;2023-07-22T00:46:31;17.30;98.60
10903;DHT22;5504;47.312;11.060;2023-07-22T00:48:57;17.30;98.40
10903;DHT22;5504;47.312;11.060;2023-07-22T00:51:23;17.20;98.40
10903;DHT22;5504;47.312;11.060;2023-07-22T00:53:49;17.30;98.70
10903;DHT22;5504;47.312;11.060;2023-07-22T00:56:14;17.30;98.60
10903;DHT22;5504;47.312;11.060;2023-07-22T00:58:40;17.20;98.30
10903;DHT22;5504;47.312;11.060;2023-07-22T01:01:06;17.20;98.50
10903;DHT22;5504;47.312;11.060;2023-07-22T01:03:32;17.30;98.70
10903;DHT22;5504;47.312;11.060;2023-07-22T01:05:58;17.40;98.60
10903;DHT22;5504;47.312;11.060;2023-07-22T01:08:26;17.40;98.50
10903;DHT22;5504;47.312;11.060;2023-07-22T01:10:51;17.40;98.60
10903;DHT22;5504;47.312;11.060;2023-07-22T01:13:17;17.40;98.80
10903;DHT22;5504;47.312;11.060;2023-07-22T01:15:43;17.50;98.50
10903;DHT22;5504;47.312;11.060;2023-07-22T01:18:09;17.50;98.20
10903;DHT22;5504;47.312;11.060;2023-07-22T01:20:35;17.40;98.10
10903;DHT22;5504;47.312;11.060;2023-07-22T01:23:01;17.40;98.30
10903;DHT22;5504;47.312;11.060;2023-07-22T01:25:28;17.30;98.20
10903;DHT22;5504;47.312;11.060;2023-07-22T01:27:53;17.20;98.10
10903;DHT22;5504;47.312;11.060;2023-07-22T01:30:19;17.30;98.50
10903;DHT22;5504;47.312;11.060;2023-07-22T01:32:46;17.20;98.40
10903;DHT22;5504;47.312;11.060;2023-07-22T01:35:12;17.10;98.30
10903;DHT22;5504;47.312;11.060;2023-07-22T01:37:38;17.00;98.20
10903;DHT22;5504;47.312;11.060;2023-07-22T01:40:05;17.00;98.60
10903;DHT22;5504;47.312;11.060;2023-07-22T01:42:49;17.10;98.60
10903;DHT22;5504;47.312;11.060;2023-07-22T01:45:14;17.20;98.70
10903;DHT22;5504;47.312;11.060;2023-07-22T01:47:40;17.20;98.70
10903;DHT22;5504;47.312;11.060;2023-07-22T01:50:07;17.30;98.80
10903;DHT22;5504;47.312;11.060;2023-07-22T01:52:32;17.40;98.50
10903;DHT22;5504;47.312;11.060;2023-07-22T01:54:58;17.40;98.50
10903;DHT22;5504;47.312;11.060;2023-07-22T01:57:24;17.40;98.20
10903;DHT22;5504;47.312;11.060;2023-07-22T01:59:50;17.30;98.30
10903;DHT22;5504;47.312;11.060;2023-07-22T02:02:15;17.30;98.20
10903;DHT22;5504;47.312;11.060;2023-07-22T02:04:41;17.30;98.40
10903;DHT22;5504;47.312;11.060;2023-07-22T02:07:07;17.30;98.40
10903;DHT22;5504;47.312;11.060;2023-07-22T02:09:33;17.30;98.10
10903;DHT22;5504;47.312;11.060;2023-07-22T02:11:58;17.30;98.50
10903;DHT22;5504;47.312;11.060;2023-07-22T02:14:24;17.40;98.50
10903;DHT22;5504;47.312;11.060;2023-07-22T02:16:50;17.40;98.50
10903;DHT22;5504;47.312;11.060;2023-07-22T02:19:16;17.40;98.10
10903;DHT22;5504;47.312;11.060;2023-07-22T02:21:41;17.30;98.30
10903;DHT22;5504;47.312;11.060;2023-07-22T02:24:08;17.40;98.60
10903;DHT22;5504;47.312;11.060;2023-07-22T02:26:34;17.40;98.50
10903;DHT22;5504;47.312;11.060;2023-07-22T02:29:00;17.50;98.60
10903;DHT22;5504;47.312;11.060;2023-07-22T02:31:26;17.50;98.50
10903;DHT22;5504;47.312;11.060;2023-07-22T02:33:51;17.60;98.30
10903;DHT22;5504;47.312;11.060;2023-07-22T02:36:17;17.60;98.10
10903;DHT22;5504;47.312;11.060;2023-07-22T02:38:43;17.50;98.10
10903;DHT22;5504;47.312;11.060;2023-07-22T02:41:09;17.50;98.20
10903;DHT22;5504;47.312;11.060;2023-07-22T02:43:35;17.40;98.20
10903;DHT22;5504;47.312;11.060;2023-07-22T02:46:05;17.40;98.40
10903;DHT22;5504;47.312;11.060;2023-07-22T02:48:33;17.40;98.60
10903;DHT22;5504;47.312;11.060;2023-07-22T02:51:06;17.30;98.70
10903;DHT22;5504;47.312;11.060;2023-07-22T02:53:33;17.40;98.90
10903;DHT22;5504;47.312;11.060;2023-07-22T02:55:59;17.50;98.70
10903;DHT22;5504;47.312;11.060;2023-07-22T02:58:25;17.50;98.30
10903;DHT22;5504;47.312;11.060;2023-07-22T03:00:51;17.50;98.10
10903;DHT22;5504;47.312;11.060;2023-07-22T03:03:17;17.40;98.10
10903;DHT22;5504;47.312;11.060;2023-07-22T03:05:44;17.40;98.30
10903;DHT22;5504;47.312;11.060;2023-07-22T03:08:10;17.30;98.40
10903;DHT22;5504;47.312;11.060;2023-07-22T03:10:36;17.30;98.70
10903;DHT22;5504;47.312;11.060;2023-07-22T03:13:02;17.30;98.50
10903;DHT22;5504;47.312;11.060;2023-07-22T03:15:29;17.20;98.40
10903;DHT22;5504;47.312;11.060;2023-07-22T03:17:55;17.30;98.60
10903;DHT22;5504;47.312;11.060;2023-07-22T03:20:27;17.20;98.60
10903;DHT22;5504;47.312;11.060;2023-07-22T03:22:53;17.10;98.60
10903;DHT22;5504;47.312;11.060;2023-07-22T03:25:20;17.10;98.70
10903;DHT22;5504;47.312;11.060;2023-07-22T03:27:46;17.20;99.10
10903;DHT22;5504;47.312;11.060;2023-07-22T03:30:13;17.30;99.10
10903;DHT22;5504;47.312;11.060;2023-07-22T03:32:43;17.30;99.00
10903;DHT22;5504;47.312;11.060;2023-07-22T03:35:09;17.30;98.90
10903;DHT22;5504;47.312;11.060;2023-07-22T03:37:39;17.40;98.80
10903;DHT22;5504;47.312;11.060;2023-07-22T03:40:05;17.50;98.50
10903;DHT22;5504;47.312;11.060;2023-07-22T03:42:54;17.40;98.50
10903;DHT22;5504;47.312;11.060;2023-07-22T03:45:22;17.40;98.50
10903;DHT22;5504;47.312;11.060;2023-07-22T03:47:51;17.50;98.60
10903;DHT22;5504;47.312;11.060;2023-07-22T03:50:18;17.50;98.80
10903;DHT22;5504;47.312;11.060;2023-07-22T03:52:43;17.40;98.50
10903;DHT22;5504;47.312;11.060;2023-07-22T03:55:09;17.30;98.50
10903;DHT22;5504;47.312;11.060;2023-07-22T03:57:35;17.30;98.40
10903;DHT22;5504;47.312;11.060;2023-07-22T04:00:01;17.20;98.40
10903;DHT22;5504;47.312;11.060;2023-07-22T04:02:26;17.20;98.50
10903;DHT22;5504;47.312;11.060;2023-07-22T04:04:54;17.20;98.50
10903;DHT22;5504;47.312;11.060;2023-07-22T04:07:21;17.20;98.80
10903;DHT22;5504;47.312;11.060;2023-07-22T04:09:47;17.20;98.90
10903;DHT22;5504;47.312;11.060;2023-07-22T04:12:13;17.20;99.10
10903;DHT22;5504;47.312;11.060;2023-07-22T04:14:39;17.30;99.20
10903;DHT22;5504;47.312;11.060;2023-07-22T04:17:06;17.20;98.90
10903;DHT22;5504;47.312;11.060;2023-07-22T04:19:31;17.20;99.00
10903;DHT22;5504;47.312;11.060;2023-07-22T04:21:57;17.30;99.20
10903;DHT22;5504;47.312;11.060;2023-07-22T04:24:23;17.40;99.10
10903;DHT22;5504;47.312;11.060;2023-07-22T04:26:50;17.40;99.10
10903;DHT22;5504;47.312;11.060;2023-07-22T04:29:16;17.50;99.10
10903;DHT22;5504;47.312;11.060;2023-07-22T04:31:42;17.50;99.10
10903;DHT22;5504;47.312;11.060;2023-07-22T04:34:08;17.50;99.20
10903;DHT22;5504;47.312;11.060;2023-07-22T04:36:34;17.60;99.20
10903;DHT22;5504;47.312;11.060;2023-07-22T04:39:02;17.60;99.20
10903;DHT22;5504;47.312;11.060;2023-07-22T04:41:30;17.70;99.10
10903;DHT22;5504;47.312;11.060;2023-07-22T04:43:57;17.70;98.90
10903;DHT22;5504;47.312;11.060;2023-07-22T04:46:24;17.80;98.90
10903;DHT22;5504;47.312;11.060;2023-07-22T04:48:49;17.70;98.90
10903;DHT22;5504;47.312;11.060;2023-07-22T04:51:15;17.70;98.90
10903;DHT22;5504;47.312;11.060;2023-07-22T04:53:41;17.70;99.00
10903;DHT22;5504;47.312;11.060;2023-07-22T04:56:06;17.80;99.20
10903;DHT22;5504;47.312;11.060;2023-07-22T04:58:32;17.80;98.90
10903;DHT22;5504;47.312;11.060;2023-07-22T05:00:58;17.70;98.90
10903;DHT22;5504;47.312;11.060;2023-07-22T05:03:24;17.80;99.20
10903;DHT22;5504;47.312;11.060;2023-07-22T05:05:52;17.80;99.10
10903;DHT22;5504;47.312;11.060;2023-07-22T05:08:18;17.80;99.00
10903;DHT22;5504;47.312;11.060;2023-07-22T05:10:44;17.80;98.70
10903;DHT22;5504;47.312;11.060;2023-07-22T05:13:10;17.80;98.90
10903;DHT22;5504;47.312;11.060;2023-07-22T05:15:36;18.00;98.70
10903;DHT22;5504;47.312;11.060;2023-07-22T05:18:01;18.00;98.40
10903;DHT22;5504;47.312;11.060;2023-07-22T05:20:27;18.10;98.20
10903;DHT22;5504;47.312;11.060;2023-07-22T05:22:53;18.10;97.90
10903;DHT22;5504;47.312;11.060;2023-07-22T05:25:18;18.10;98.00
10903;DHT22;5504;47.312;11.060;2023-07-22T05:27:44;18.10;98.20
10903;DHT22;5504;47.312;11.060;2023-07-22T05:30:10;18.00;98.20
10903;DHT22;5504;47.312;11.060;2023-07-22T05:32:36;17.90;98.30
10903;DHT22;5504;47.312;11.060;2023-07-22T05:35:01;18.00;98.60
10903;DHT22;5504;47.312;11.060;2023-07-22T05:37:30;18.00;98.40
10903;DHT22;5504;47.312;11.060;2023-07-22T05:39:56;18.10;98.60
10903;DHT22;5504;47.312;11.060;2023-07-22T05:42:22;18.30;98.80
10903;DHT22;5504;47.312;11.060;2023-07-22T05:44:48;18.50;98.80
10903;DHT22;5504;47.312;11.060;2023-07-22T05:47:14;18.60;98.70
10903;DHT22;5504;47.312;11.060;2023-07-22T05:49:40;18.80;97.80
10903;DHT22;5504;47.312;11.060;2023-07-22T05:52:06;18.90;97.50
10903;DHT22;5504;47.312;11.060;2023-07-22T05:54:31;18.90;97.00
10903;DHT22;5504;47.312;11.060;2023-07-22T05:56:57;18.90;96.80
10903;DHT22;5504;47.312;11.060;2023-07-22T05:59:23;19.00;96.90
10903;DHT22;5504;47.312;11.060;2023-07-22T06:01:48;19.10;97.10
10903;DHT22;5504;47.312;11.060;2023-07-22T06:04:14;19.00;96.50
10903;DHT22;5504;47.312;11.060;2023-07-22T06:06:40;19.00;96.00
10903;DHT22;5504;47.312;11.060;2023-07-22T06:09:06;18.80;95.70
10903;DHT22;5504;47.312;11.060;2023-07-22T06:11:31;18.70;96.50
10903;DHT22;5504;47.312;11.060;2023-07-22T06:13:57;19.10;96.90
10903;DHT22;5504;47.312;11.060;2023-07-22T06:16:23;19.10;96.20
10903;DHT22;5504;47.312;11.060;2023-07-22T06:18:49;19.30;96.80
10903;DHT22;5504;47.312;11.060;2023-07-22T06:21:15;19.50;95.80
10903;DHT22;5504;47.312;11.060;2023-07-22T06:23:41;19.50;95.40
10903;DHT22;5504;47.312;11.060;2023-07-22T06:26:07;19.70;96.10
10903;DHT22;5504;47.312;11.060;2023-07-22T06:28:33;20.10;95.90
10903;DHT22;5504;47.312;11.060;2023-07-22T06:30:58;20.40;95.00
10903;DHT22;5504;47.312;11.060;2023-07-22T06:33:24;20.50;94.30
10903;DHT22;5504;47.312;11.060;2023-07-22T06:35:49;20.90;94.20
10903;DHT22;5504;47.312;11.060;2023-07-22T06:38:15;21.40;94.10
10903;DHT22;5504;47.312;11.060;2023-07-22T06:40:41;21.70;93.10
10903;DHT22;5504;47.312;11.060;2023-07-22T06:43:06;22.20;93.30
10903;DHT22;5504;47.312;11.060;2023-07-22T06:45:32;22.40;92.50
10903;DHT22;5504;47.312;11.060;2023-07-22T06:47:59;22.30;91.90
10903;DHT22;5504;47.312;11.060;2023-07-22T06:50:24;22.70;90.50
10903;DHT22;5504;47.312;11.060;2023-07-22T06:52:50;22.70;89.90
10903;DHT22;5504;47.312;11.060;2023-07-22T06:55:16;23.00;90.00
10903;DHT22;5504;47.312;11.060;2023-07-22T06:57:41;23.20;89.90
10903;DHT22;5504;47.312;11.060;2023-07-22T07:00:08;22.90;87.40
10903;DHT22;5504;47.312;11.060;2023-07-22T07:02:35;22.90;86.10
10903;DHT22;5504;47.312;11.060;2023-07-22T07:05:01;22.80;88.00
10903;DHT22;5504;47.312;11.060;2023-07-22T07:07:27;23.10;90.90
10903;DHT22;5504;47.312;11.060;2023-07-22T07:09:53;23.40;91.00
10903;DHT22;5504;47.312;11.060;2023-07-22T07:12:18;23.90;91.30
10903;DHT22;5504;47.312;11.060;2023-07-22T07:14:44;23.70;86.70
10903;DHT22;5504;47.312;11.060;2023-07-22T07:17:10;23.00;83.30
10903;DHT22;5504;47.312;11.060;2023-07-22T07:19:36;22.10;87.00
10903;DHT22;5504;47.312;11.060;2023-07-22T07:22:01;22.40;89.50
10903;DHT22;5504;47.312;11.060;2023-07-22T07:24:27;23.00;89.00
10903;DHT22;5504;47.312;11.060;2023-07-22T07:26:53;22.60;86.00
10903;DHT22;5504;47.312;11.060;2023-07-22T07:29:19;23.10;89.80
10903;DHT22;5504;47.312;11.060;2023-07-22T07:31:44;24.00;89.00
10903;DHT22;5504;47.312;11.060;2023-07-22T07:34:10;23.90;79.90
10903;DHT22;5504;47.312;11.060;2023-07-22T07:36:36;23.80;81.00
10903;DHT22;5504;47.312;11.060;2023-07-22T07:39:01;24.10;84.30
10903;DHT22;5504;47.312;11.060;2023-07-22T07:41:28;23.40;78.80
10903;DHT22;5504;47.312;11.060;2023-07-22T07:43:54;23.00;77.90
10903;DHT22;5504;47.312;11.060;2023-07-22T07:48:48;24.10;87.70
10903;DHT22;5504;47.312;11.060;2023-07-22T07:51:15;24.60;82.40
10903;DHT22;5504;47.312;11.060;2023-07-22T07:53:45;24.70;77.00
10903;DHT22;5504;47.312;11.060;2023-07-22T07:56:15;24.90;83.20
10903;DHT22;5504;47.312;11.060;2023-07-22T07:58:41;24.90;80.50
10903;DHT22;5504;47.312;11.060;2023-07-22T08:01:07;25.30;80.80
10903;DHT22;5504;47.312;11.060;2023-07-22T08:03:35;25.10;80.50
10903;DHT22;5504;47.312;11.060;2023-07-22T08:06:01;24.70;78.70
10903;DHT22;5504;47.312;11.060;2023-07-22T08:08:27;24.40;75.50
10903;DHT22;5504;47.312;11.060;2023-07-22T08:11:04;24.20;78.90
10903;DHT22;5504;47.312;11.060;2023-07-22T08:13:30;24.10;80.20
10903;DHT22;5504;47.312;11.060;2023-07-22T08:15:58;24.30;74.80
10903;DHT22;5504;47.312;11.060;2023-07-22T08:18:24;24.60;82.30
10903;DHT22;5504;47.312;11.060;2023-07-22T08:20:52;24.90;79.00
10903;DHT22;5504;47.312;11.060;2023-07-22T08:23:21;25.50;77.00
10903;DHT22;5504;47.312;11.060;2023-07-22T08:25:47;25.20;71.40
10903;DHT22;5504;47.312;11.060;2023-07-22T08:28:13;25.40;77.10
10903;DHT22;5504;47.312;11.060;2023-07-22T08:30:39;25.60;75.70
10903;DHT22;5504;47.312;11.060;2023-07-22T08:33:09;25.70;73.20
10903;DHT22;5504;47.312;11.060;2023-07-22T08:35:39;26.20;76.70
10903;DHT22;5504;47.312;11.060;2023-07-22T08:38:06;26.70;76.60
10903;DHT22;5504;47.312;11.060;2023-07-22T08:40:37;27.10;77.00
10903;DHT22;5504;47.312;11.060;2023-07-22T08:43:04;27.50;76.70
10903;DHT22;5504;47.312;11.060;2023-07-22T08:45:32;27.70;73.60
10903;DHT22;5504;47.312;11.060;2023-07-22T08:47:58;27.20;68.30
10903;DHT22;5504;47.312;11.060;2023-07-22T08:50:29;27.50;73.40
10903;DHT22;5504;47.312;11.060;2023-07-22T08:52:56;27.90;70.80
10903;DHT22;5504;47.312;11.060;2023-07-22T08:55:23;27.80;70.50
10903;DHT22;5504;47.312;11.060;2023-07-22T08:57:50;27.30;69.10
10903;DHT22;5504;47.312;11.060;2023-07-22T09:00:16;27.60;71.00
10903;DHT22;5504;47.312;11.060;2023-07-22T09:02:43;28.00;71.40
10903;DHT22;5504;47.312;11.060;2023-07-22T09:05:10;28.00;68.90
10903;DHT22;5504;47.312;11.060;2023-07-22T09:07:37;28.00;68.70
10903;DHT22;5504;47.312;11.060;2023-07-22T09:10:05;27.30;68.30
10903;DHT22;5504;47.312;11.060;2023-07-22T09:12:34;27.40;68.20
10903;DHT22;5504;47.312;11.060;2023-07-22T09:15:08;26.50;69.30
10903;DHT22;5504;47.312;11.060;2023-07-22T09:17:35;27.00;72.80
10903;DHT22;5504;47.312;11.060;2023-07-22T09:20:02;27.40;70.70
10903;DHT22;5504;47.312;11.060;2023-07-22T09:22:29;27.60;74.40
10903;DHT22;5504;47.312;11.060;2023-07-22T09:25:19;27.90;69.40
10903;DHT22;5504;47.312;11.060;2023-07-22T09:27:46;27.80;67.50
10903;DHT22;5504;47.312;11.060;2023-07-22T09:30:24;27.40;66.40
10903;DHT22;5504;47.312;11.060;2023-07-22T09:32:54;27.30;67.70
10903;DHT22;5504;47.312;11.060;2023-07-22T09:35:20;27.20;69.50
10903;DHT22;5504;47.312;11.060;2023-07-22T09:37:48;26.90;66.50
10903;DHT22;5504;47.312;11.060;2023-07-22T09:40:16;26.20;70.20
10903;DHT22;5504;47.312;11.060;2023-07-22T09:45:14;27.00;72.10
10903;DHT22;5504;47.312;11.060;2023-07-22T09:47:45;27.10;72.10
10903;DHT22;5504;47.312;11.060;2023-07-22T09:50:16;26.90;65.60
10903;DHT22;5504;47.312;11.060;2023-07-22T09:52:49;25.90;71.50
10903;DHT22;5504;47.312;11.060;2023-07-22T09:55:26;25.80;70.60
10903;DHT22;5504;47.312;11.060;2023-07-22T09:57:57;25.80;72.80
10903;DHT22;5504;47.312;11.060;2023-07-22T10:00:46;25.90;67.80
10903;DHT22;5504;47.312;11.060;2023-07-22T10:03:15;26.10;72.20
10903;DHT22;5504;47.312;11.060;2023-07-22T10:05:42;26.50;73.50
10903;DHT22;5504;47.312;11.060;2023-07-22T10:08:10;27.10;75.10
10903;DHT22;5504;47.312;11.060;2023-07-22T10:10:38;27.50;72.00
10903;DHT22;5504;47.312;11.060;2023-07-22T10:13:04;27.40;72.60
10903;DHT22;5504;47.312;11.060;2023-07-22T10:15:34;26.50;66.30
10903;DHT22;5504;47.312;11.060;2023-07-22T10:18:04;26.30;70.70
10903;DHT22;5504;47.312;11.060;2023-07-22T10:20:34;26.40;70.40
10903;DHT22;5504;47.312;11.060;2023-07-22T10:23:02;26.70;69.50
10903;DHT22;5504;47.312;11.060;2023-07-22T10:25:28;27.10;73.30
10903;DHT22;5504;47.312;11.060;2023-07-22T10:27:54;27.00;65.40
10903;DHT22;5504;47.312;11.060;2023-07-22T10:30:20;25.80;68.30
10903;DHT22;5504;47.312;11.060;2023-07-22T10:32:48;26.70;73.40
10903;DHT22;5504;47.312;11.060;2023-07-22T10:37:56;27.40;64.30
10903;DHT22;5504;47.312;11.060;2023-07-22T10:40:31;26.60;64.40
10903;DHT22;5504;47.312;11.060;2023-07-22T10:43:03;27.40;71.30
10903;DHT22;5504;47.312;11.060;2023-07-22T10:45:31;28.00;70.60
10903;DHT22;5504;47.312;11.060;2023-07-22T10:50:46;27.60;66.50
10903;DHT22;5504;47.312;11.060;2023-07-22T10:53:32;27.90;68.20
10903;DHT22;5504;47.312;11.060;2023-07-22T10:59:07;27.90;66.30
10903;DHT22;5504;47.312;11.060;2023-07-22T11:12:17;28.10;63.00
10903;DHT22;5504;47.312;11.060;2023-07-22T11:14:50;28.60;68.00
10903;DHT22;5504;47.312;11.060;2023-07-22T11:17:17;29.00;69.00
10903;DHT22;5504;47.312;11.060;2023-07-22T11:19:43;29.40;65.10
10903;DHT22;5504;47.312;11.060;2023-07-22T11:22:10;28.60;61.50
10903;DHT22;5504;47.312;11.060;2023-07-22T11:24:36;28.70;65.90
10903;DHT22;5504;47.312;11.060;2023-07-22T11:27:04;28.80;64.70
10903;DHT22;5504;47.312;11.060;2023-07-22T11:29:30;28.50;64.50
10903;DHT22;5504;47.312;11.060;2023-07-22T11:31:57;28.60;65.60
10903;DHT22;5504;47.312;11.060;2023-07-22T11:34:24;28.30;61.90
10903;DHT22;5504;47.312;11.060;2023-07-22T11:36:51;28.20;64.30
10903;DHT22;5504;47.312;11.060;2023-07-22T11:39:19;28.30;62.90
10903;DHT22;5504;47.312;11.060;2023-07-22T11:41:46;28.20;64.30
10903;DHT22;5504;47.312;11.060;2023-07-22T11:44:14;27.70;66.60
10903;DHT22;5504;47.312;11.060;2023-07-22T11:47:07;27.90;67.80
10903;DHT22;5504;47.312;11.060;2023-07-22T11:49:37;28.70;68.10
10903;DHT22;5504;47.312;11.060;2023-07-22T11:52:05;28.10;62.40
10903;DHT22;5504;47.312;11.060;2023-07-22T11:54:40;28.30;65.80
10903;DHT22;5504;47.312;11.060;2023-07-22T11:57:22;28.60;64.30
10903;DHT22;5504;47.312;11.060;2023-07-22T11:59:52;28.50;60.00
10903;DHT22;5504;47.312;11.060;2023-07-22T12:02:26;28.80;62.30
10903;DHT22;5504;47.312;11.060;2023-07-22T12:05:00;28.40;59.40
10903;DHT22;5504;47.312;11.060;2023-07-22T12:07:31;28.40;62.00
10903;DHT22;5504;47.312;11.060;2023-07-22T12:09:59;28.00;63.20
10903;DHT22;5504;47.312;11.060;2023-07-22T12:15:14;27.70;61.90
10903;DHT22;5504;47.312;11.060;2023-07-22T12:17:51;27.70;62.60
10903;DHT22;5504;47.312;11.060;2023-07-22T12:20:17;28.00;60.80
10903;DHT22;5504;47.312;11.060;2023-07-22T12:22:43;28.20;63.20
10903;DHT22;5504;47.312;11.060;2023-07-22T12:25:09;28.00;60.20
10903;DHT22;5504;47.312;11.060;2023-07-22T12:27:37;26.50;60.00
10903;DHT22;5504;47.312;11.060;2023-07-22T12:30:03;27.00;63.80
10903;DHT22;5504;47.312;11.060;2023-07-22T12:32:29;27.20;64.40
10903;DHT22;5504;47.312;11.060;2023-07-22T12:34:54;26.70;60.40
10903;DHT22;5504;47.312;11.060;2023-07-22T12:37:20;26.20;62.60
10903;DHT22;5504;47.312;11.060;2023-07-22T12:39:46;25.60;62.20
10903;DHT22;5504;47.312;11.060;2023-07-22T12:42:11;25.60;67.00
10903;DHT22;5504;47.312;11.060;2023-07-22T12:44:37;26.40;64.60
10903;DHT22;5504;47.312;11.060;2023-07-22T12:47:03;26.10;65.00
10903;DHT22;5504;47.312;11.060;2023-07-22T12:49:29;26.50;64.50
10903;DHT22;5504;47.312;11.060;2023-07-22T12:51:54;27.10;67.20
10903;DHT22;5504;47.312;11.060;2023-07-22T12:54:20;27.00;64.10
10903;DHT22;5504;47.312;11.060;2023-07-22T12:56:46;26.50;64.60
10903;DHT22;5504;47.312;11.060;2023-07-22T12:59:12;26.60;65.40
10903;DHT22;5504;47.312;11.060;2023-07-22T13:01:37;27.00;64.90
10903;DHT22;5504;47.312;11.060;2023-07-22T13:04:06;27.30;65.30
10903;DHT22;5504;47.312;11.060;2023-07-22T13:06:32;27.20;64.20
10903;DHT22;5504;47.312;11.060;2023-07-22T13:08:57;27.40;63.00
10903;DHT22;5504;47.312;11.060;2023-07-22T13:11:23;26.20;60.30
10903;DHT22;5504;47.312;11.060;2023-07-22T13:13:49;26.40;61.20
10903;DHT22;5504;47.312;11.060;2023-07-22T13:16:14;26.90;62.30
10903;DHT22;5504;47.312;11.060;2023-07-22T13:18:40;26.80;61.90
10903;DHT22;5504;47.312;11.060;2023-07-22T13:21:06;26.80;62.40
10903;DHT22;5504;47.312;11.060;2023-07-22T13:23:31;26.90;60.30
10903;DHT22;5504;47.312;11.060;2023-07-22T13:25:57;26.50;61.20
10903;DHT22;5504;47.312;11.060;2023-07-22T13:28:23;26.70;65.00
10903;DHT22;5504;47.312;11.060;2023-07-22T13:30:48;26.80;61.90
10903;DHT22;5504;47.312;11.060;2023-07-22T13:33:14;26.80;63.30
10903;DHT22;5504;47.312;11.060;2023-07-22T13:35:39;26.60;63.60
10903;DHT22;5504;47.312;11.060;2023-07-22T13:38:05;26.50;62.20
10903;DHT22;5504;47.312;11.060;2023-07-22T13:40:31;26.10;63.90
10903;DHT22;5504;47.312;11.060;2023-07-22T13:42:57;26.10;67.30
10903;DHT22;5504;47.312;11.060;2023-07-22T13:45:23;26.50;67.50
10903;DHT22;5504;47.312;11.060;2023-07-22T13:47:48;26.20;65.40
10903;DHT22;5504;47.312;11.060;2023-07-22T13:50:14;25.30;64.90
10903;DHT22;5504;47.312;11.060;2023-07-22T13:52:40;25.30;68.80
10903;DHT22;5504;47.312;11.060;2023-07-22T13:55:07;25.60;70.80
10903;DHT22;5504;47.312;11.060;2023-07-22T13:57:33;25.90;69.10
10903;DHT22;5504;47.312;11.060;2023-07-22T13:59:59;25.60;67.10
10903;DHT22;5504;47.312;11.060;2023-07-22T14:02:24;25.80;69.70
10903;DHT22;5504;47.312;11.060;2023-07-22T14:04:50;25.90;69.50
10903;DHT22;5504;47.312;11.060;2023-07-22T14:07:16;26.00;71.10
10903;DHT22;5504;47.312;11.060;2023-07-22T14:09:43;26.10;70.60
10903;DHT22;5504;47.312;11.060;2023-07-22T14:12:08;25.70;70.60
10903;DHT22;5504;47.312;11.060;2023-07-22T14:14:34;25.90;73.00
10903;DHT22;5504;47.312;11.060;2023-07-22T14:17:00;25.70;70.00
10903;DHT22;5504;47.312;11.060;2023-07-22T14:19:26;25.80;73.10
10903;DHT22;5504;47.312;11.060;2023-07-22T14:21:51;25.90;71.50
10903;DHT22;5504;47.312;11.060;2023-07-22T14:24:17;26.00;72.30
10903;DHT22;5504;47.312;11.060;2023-07-22T14:26:43;26.10;70.90
10903;DHT22;5504;47.312;11.060;2023-07-22T14:29:08;26.20;72.30
10903;DHT22;5504;47.312;11.060;2023-07-22T14:31:34;25.90;71.30
10903;DHT22;5504;47.312;11.060;2023-07-22T14:34:00;25.40;70.50
10903;DHT22;5504;47.312;11.060;2023-07-22T14:36:25;25.30;73.90
10903;DHT22;5504;47.312;11.060;2023-07-22T14:38:52;25.20;74.50
10903;DHT22;5504;47.312;11.060;2023-07-22T14:41:19;24.90;74.30
10903;DHT22;5504;47.312;11.060;2023-07-22T14:43:45;24.90;73.80
10903;DHT22;5504;47.312;11.060;2023-07-22T14:46:10;25.20;75.00
10903;DHT22;5504;47.312;11.060;2023-07-22T14:48:36;25.10;73.50
10903;DHT22;5504;47.312;11.060;2023-07-22T14:51:02;25.20;73.70
10903;DHT22;5504;47.312;11.060;2023-07-22T14:53:28;25.00;73.10
10903;DHT22;5504;47.312;11.060;2023-07-22T14:55:53;25.00;74.20
10903;DHT22;5504;47.312;11.060;2023-07-22T14:58:19;24.90;74.50
10903;DHT22;5504;47.312;11.060;2023-07-22T15:00:45;24.40;74.00
10903;DHT22;5504;47.312;11.060;2023-07-22T15:03:11;24.60;74.20
10903;DHT22;5504;47.312;11.060;2023-07-22T15:05:36;24.70;73.30
10903;DHT22;5504;47.312;11.060;2023-07-22T15:08:02;24.70;72.80
10903;DHT22;5504;47.312;11.060;2023-07-22T15:10:28;24.70;73.10
10903;DHT22;5504;47.312;11.060;2023-07-22T15:12:53;24.80;73.10
10903;DHT22;5504;47.312;11.060;2023-07-22T15:15:19;25.10;74.90
10903;DHT22;5504;47.312;11.060;2023-07-22T15:17:46;25.00;72.10
10903;DHT22;5504;47.312;11.060;2023-07-22T15:20:12;25.00;74.20
10903;DHT22;5504;47.312;11.060;2023-07-22T15:22:37;24.90;73.20
10903;DHT22;5504;47.312;11.060;2023-07-22T15:25:04;24.80;71.70
10903;DHT22;5504;47.312;11.060;2023-07-22T15:27:30;24.80;73.60
10903;DHT22;5504;47.312;11.060;2023-07-22T15:29:56;25.00;75.00
10903;DHT22;5504;47.312;11.060;2023-07-22T15:32:22;24.70;74.20
10903;DHT22;5504;47.312;11.060;2023-07-22T15:34:47;24.80;73.80
10903;DHT22;5504;47.312;11.060;2023-07-22T15:37:13;25.00;72.90
10903;DHT22;5504;47.312;11.060;2023-07-22T15:39:39;24.90;72.30
10903;DHT22;5504;47.312;11.060;2023-07-22T15:42:04;25.00;73.10
10903;DHT22;5504;47.312;11.060;2023-07-22T15:44:30;24.90;72.10
10903;DHT22;5504;47.312;11.060;2023-07-22T15:46:56;24.70;71.60
10903;DHT22;5504;47.312;11.060;2023-07-22T15:49:22;24.80;72.80
10903;DHT22;5504;47.312;11.060;2023-07-22T15:51:48;24.70;73.10
10903;DHT22;5504;47.312;11.060;2023-07-22T15:54:13;24.60;73.20